Arabi, GA

3:45 PM EDT on June 30, 2015 (GMT -0400)
Crisp EMA | | Change Station
CLOSE
Current Station
Personal Weather Station
Location: Cordele, GA
Elevation: 315 ft
Nearby Weather Stations
Active Advisory: Severe Thunderstorm Watch

Elev 315 ft 31.92 °N, 83.78 °W | Updated 10 minutes ago

Thunderstorm
Thunderstorm
71.3 °F
Feels Like 71.3 °F
N
1.0
Wind Variable Wind from SSE
Gusts 6.0 mph

Today
High -- | Low -- °F
--% Chance of Precip.
Yesterday
High -- | Low -- °F
Precip. -- in
6:32 AM 8:44 PM
Waxing Gibbous, 98% visible
Pressure 30.03 in
Visibility 10.0 miles
Clouds Clear
Dew Point 70 °F
Humidity 95%
Rainfall 0.36 in
Snow Depth Not available.
UV 11 out of 12
Pollen 3.30 out of 12
Air Quality Not available.
Flu Activity Sporadic
METAR KCKF 301935Z AUTO 17004KT 10SM CLR 24/22 A3003 RMK AO2 LTG DSNT ALQS T02380218

More Conditions Fewer Conditions

Pressure 30.03 in
Visibility 10.0 miles
Clouds Clear
Dew Point 70 °F
Humidity 95%
Rainfall 0.36 in
Snow Depth Not available.
UV 11 out of 12
Pollen 3.30 out of 12
Air Quality Not available.
Flu Activity Sporadic
METAR KCKF 301935Z AUTO 17004KT 10SM CLR 24/22 A3003 RMK AO2 LTG DSNT ALQS T02380218

More Conditions Fewer Conditions

10-Day Weather Forecast

×

Almanac

Astronomy

Jun. 30, 2015 Rise Set
Actual Time
Civil Twilight
Nautical Twilight
Astronomical Twilight
Moon
Length of Visible Light
Length of Day
Tomorrow will be .
, % of the Moon is Illuminated

Today's Extremes

State Highs State Lows

Community

WunderPhotos

Upload Photos

1,834,067 photos uploaded!

WunderBlogs® & News

Nearby

Air Quality

  Air Quality AQ Index Pollutant
Not available.

Snow Depth

Station Depth Elevation

Earthquake Activity

City Distance Mag. Time & Date
Minimum magnitude displayed is 2.5.

Coastal Water Temperatures

Place Temperature

Stations

Nearby Weather Stations

Station Location Temp. Windchill Dew Point Humidity Wind Precip. Elev Updated Type
                   
Severe Thunderstorm Watch
Statement as of 3:24 PM EDT on June 30, 2015

Severe Thunderstorm Watch 374 remains in effect until 800 PM EDT
for the following locations


GA
. Georgia counties included are

Baldwin banks Barrow
Bibb Bleckley Bryan
Bulloch Burke Butts
Candler Chatham Clarke
Columbia Crawford crisp
Dodge Dooly Effingham
Emanuel Evans Fannin
Glascock Greene Hall
Hancock Houston Jackson
Jasper Jefferson Jenkins
Johnson Jones Laurens
Liberty Lincoln long
Lumpkin McDuffie McIntosh
Macon Madison Monroe
Montgomery Morgan Newton
Oconee Oglethorpe Peach
Pulaski Putnam Richmond
Screven Sumter Taliaferro
Tattnall Taylor Telfair
Toombs towns Treutlen
Twiggs Union Walton
Warren Washington Wheeler
white Wilcox Wilkes
Wilkinson